Fort Pike — WAA9418 — position and weather

sailwx.info

Track history (hours):
 
Tides and Currents Weather Stations Pressure Air Temp Water Temp Dewpoint Dewpoint Depression Visibility Wind Speed Wind Dir Waves Ship Positions

Fort Pike

More information available from US FCC via Universal Licensing System and Coast Guard Vessel Documentation Center.

Last reported at 2014-Aug-27 08:18 UTC. Time now 2014-Aug-27 19:13 UTC.
Position N 37°20' W 077°16'.

Length 18 m; draft 10.5 m.

Type: Tug. MMSI: 366948310.

Date/timePositionNaut miles runAvg speedWind from/ knotsBaromVisibWave heightAir tempDewpointWater temp
2014-Aug-27 08:18N 37°20' W 077°16'2 1.6
2014-Aug-27 07:13N 37°18' W 077°15'4 6.4
2014-Aug-27 06:33N 37°18' W 077°10'5 4.7
2014-Aug-27 05:33N 37°16' W 077°04'5 3.8
2014-Aug-27 04:21N 37°15' W 076°59'4 5.5
2014-Aug-27 03:31N 37°13' W 076°54'5 5.2
2014-Aug-27 02:32N 37°12' W 076°47'17 4.1
2014-Aug-26 22:29N 37°02' W 076°32'9 4.1
2014-Aug-26 20:18N 36°57' W 076°22'8 4.4
2014-Aug-26 18:30N 36°50' W 076°16'0 0.3
2014-Aug-26 17:23N 36°50' W 076°16'1 1.5
2014-Aug-26 16:31N 36°50' W 076°17'0 0.0
2014-Aug-26 15:29N 36°50' W 076°17'0 0.0
2014-Aug-26 14:33N 36°50' W 076°17'0 0.0
2014-Aug-26 13:32N 36°50' W 076°17'0 0.0
2014-Aug-26 12:33N 36°50' W 076°17'0 0.0
2014-Aug-26 11:21N 36°50' W 076°17'0 0.0
2014-Aug-26 10:27N 36°50' W 076°17'0 0.0
2014-Aug-26 09:24N 36°50' W 076°17'0 0.0
2014-Aug-26 07:27N 36°50' W 076°17'0 0.0
2014-Aug-26 06:13N 36°50' W 076°17'0 0.0
2014-Aug-26 05:33N 36°50' W 076°17'0 0.0
2014-Aug-26 04:19N 36°50' W 076°17'0 0.0
2014-Aug-26 03:25N 36°50' W 076°17'0 0.0
2014-Aug-26 02:25N 36°50' W 076°17'0 0.0
2014-Aug-26 01:32N 36°50' W 076°17'0 0.0
2014-Aug-25 23:33N 36°50' W 076°17'2 2.0
2014-Aug-25 22:32N 36°51' W 076°20'2 1.5
2014-Aug-25 21:13N 36°51' W 076°17'0 0.3
2014-Aug-25 20:28N 36°50' W 076°18'0 0.2
2014-Aug-25 19:30N 36°50' W 076°17'0 0.0
2014-Aug-25 18:25N 36°50' W 076°17'0 0.0
2014-Aug-25 17:15N 36°50' W 076°17'0 0.0
2014-Aug-25 16:33N 36°50' W 076°17'0 0.0
2014-Aug-25 15:30N 36°50' W 076°17'0 0.0
2014-Aug-25 14:16N 36°50' W 076°17'0 0.0
2014-Aug-25 12:29N 36°50' W 076°17'0 0.0
2014-Aug-25 11:33N 36°50' W 076°17'2 2.0
2014-Aug-25 10:26N 36°51' W 076°20'3 3.3
2014-Aug-25 09:31N 36°50' W 076°16'1 0.6
2014-Aug-25 08:34N 36°50' W 076°16'4 4.2
2014-Aug-25 07:33N 36°53' W 076°20'6 5.9
2014-Aug-25 06:33N 36°59' W 076°20'3 3.4
2014-Aug-25 05:34N 37°00' W 076°16'5 4.8
2014-Aug-25 04:30N 37°04' W 076°12'5 5.6
2014-Aug-25 03:31N 37°09' W 076°08'113 4.9
2014-Aug-24 04:23N 39°01' W 076°23'6 6.7
2014-Aug-24 03:32N 39°07' W 076°24'6 6.0
2014-Aug-24 02:33N 39°11' W 076°29'6 5.9
2014-Aug-24 01:33N 39°15' W 076°35'2 1.9
2014-Aug-24 00:33N 39°14' W 076°33'7 6.9
2014-Aug-23 23:33N 39°10' W 076°25'7 7.2
2014-Aug-23 22:33N 39°03' W 076°23'130 6.7
2014-Aug-23 03:16N 36°53' W 076°20'4 5.9
2014-Aug-23 02:31N 36°50' W 076°16'1 0.6
2014-Aug-23 00:08N 36°50' W 076°17'0 0.0
2014-Aug-22 23:33N 36°50' W 076°17'0 0.0
2014-Aug-22 22:33N 36°50' W 076°17'1 1.1
2014-Aug-22 21:33N 36°50' W 076°16'5 4.5
2014-Aug-22 20:32N 36°54' W 076°20'12 0.4
2014-Aug-21 16:20N 37°01' W 076°31'8 3.7
2014-Aug-21 14:20N 36°57' W 076°23'9 4.4
2014-Aug-21 12:20N 36°50' W 076°16'1 0.6
2014-Aug-21 11:25N 36°50' W 076°16'1 1.5
2014-Aug-21 10:30N 36°50' W 076°17'0 0.0
2014-Aug-21 09:10N 36°50' W 076°17'10 3.6
2014-Aug-21 06:24N 36°60' W 076°21'0 0.2
2014-Aug-21 04:20N 36°60' W 076°21'4 2.0
2014-Aug-21 02:27N 36°56' W 076°20'6 7.0
2014-Aug-21 01:32N 36°50' W 076°17'0 0.2
2014-Aug-21 00:31N 36°50' W 076°17'1 1.3
2014-Aug-20 23:29N 36°49' W 076°17'1 0.9
2014-Aug-20 22:33N 36°48' W 076°17'2 1.2
2014-Aug-20 20:24N 36°50' W 076°16'0 0.3
2014-Aug-20 19:18N 36°50' W 076°15'0 0.6
2014-Aug-20 18:32N 36°50' W 076°16'0 0.1
2014-Aug-20 17:32N 36°50' W 076°16'0 0.0
2014-Aug-20 15:30N 36°50' W 076°16'0 0.4
2014-Aug-20 14:28N 36°50' W 076°16'1 1.0
2014-Aug-20 13:22N 36°50' W 076°15'1 0.3
2014-Aug-20 08:34N 36°50' W 076°16'6 5.4
2014-Aug-20 07:30N 36°55' W 076°20'5 5.6
2014-Aug-20 06:34N 37°00' W 076°18'5 4.8
2014-Aug-20 05:33N 37°04' W 076°14'6 6.1
2014-Aug-20 04:33N 37°09' W 076°12'3 0.1
2014-Aug-19 06:31N 37°06' W 076°13'7 6.9
2014-Aug-19 05:32N 37°00' W 076°17'13 6.2
2014-Aug-19 03:29N 36°48' W 076°18'3 0.9
2014-Aug-19 00:08N 36°50' W 076°16'2 3.0
2014-Aug-18 23:24N 36°48' W 076°17'1 0.0
2014-Aug-17 16:13N 36°48' W 076°18'3 3.9
2014-Aug-17 15:28N 36°50' W 076°16'1 1.4
2014-Aug-17 14:30N 36°50' W 076°17'1 1.2
2014-Aug-17 13:25N 36°50' W 076°16'4 4.2
2014-Aug-17 12:23N 36°53' W 076°20'4 4.3
2014-Aug-17 11:31N 36°57' W 076°21'  
Track history (hours):
 
Tides and Currents Weather Stations Pressure Air Temp Water Temp Dewpoint Dewpoint Depression Visibility Wind Speed Wind Dir Waves Ship Positions

Fort Pike

More information available from US FCC via Universal Licensing System and Coast Guard Vessel Documentation Center.

Last reported at 2014-Aug-27 08:18 UTC. Time now 2014-Aug-27 19:13 UTC.
Position N 37°20' W 077°16'.

Length 18 m; draft 10.5 m.

Type: Tug. MMSI: 366948310.

Date/timePositionNaut miles runAvg speedWind from/ knotsBaromVisibWave heightAir tempDewpointWater temp
2014-Aug-27 08:18N 37°20' W 077°16'2 1.6
2014-Aug-27 07:13N 37°18' W 077°15'4 6.4
2014-Aug-27 06:33N 37°18' W 077°10'5 4.7
2014-Aug-27 05:33N 37°16' W 077°04'5 3.8
2014-Aug-27 04:21N 37°15' W 076°59'4 5.5
2014-Aug-27 03:31N 37°13' W 076°54'5 5.2
2014-Aug-27 02:32N 37°12' W 076°47'17 4.1
2014-Aug-26 22:29N 37°02' W 076°32'9 4.1
2014-Aug-26 20:18N 36°57' W 076°22'8 4.4
2014-Aug-26 18:30N 36°50' W 076°16'0 0.3
2014-Aug-26 17:23N 36°50' W 076°16'1 1.5
2014-Aug-26 16:31N 36°50' W 076°17'0 0.0
2014-Aug-26 15:29N 36°50' W 076°17'0 0.0
2014-Aug-26 14:33N 36°50' W 076°17'0 0.0
2014-Aug-26 13:32N 36°50' W 076°17'0 0.0
2014-Aug-26 12:33N 36°50' W 076°17'0 0.0
2014-Aug-26 11:21N 36°50' W 076°17'0 0.0
2014-Aug-26 10:27N 36°50' W 076°17'0 0.0
2014-Aug-26 09:24N 36°50' W 076°17'0 0.0
2014-Aug-26 07:27N 36°50' W 076°17'0 0.0
2014-Aug-26 06:13N 36°50' W 076°17'0 0.0
2014-Aug-26 05:33N 36°50' W 076°17'0 0.0
2014-Aug-26 04:19N 36°50' W 076°17'0 0.0
2014-Aug-26 03:25N 36°50' W 076°17'0 0.0
2014-Aug-26 02:25N 36°50' W 076°17'0 0.0
2014-Aug-26 01:32N 36°50' W 076°17'0 0.0
2014-Aug-25 23:33N 36°50' W 076°17'2 2.0
2014-Aug-25 22:32N 36°51' W 076°20'2 1.5
2014-Aug-25 21:13N 36°51' W 076°17'0 0.3
2014-Aug-25 20:28N 36°50' W 076°18'0 0.2
2014-Aug-25 19:30N 36°50' W 076°17'0 0.0
2014-Aug-25 18:25N 36°50' W 076°17'0 0.0
2014-Aug-25 17:15N 36°50' W 076°17'0 0.0
2014-Aug-25 16:33N 36°50' W 076°17'0 0.0
2014-Aug-25 15:30N 36°50' W 076°17'0 0.0
2014-Aug-25 14:16N 36°50' W 076°17'0 0.0
2014-Aug-25 12:29N 36°50' W 076°17'0 0.0
2014-Aug-25 11:33N 36°50' W 076°17'2 2.0
2014-Aug-25 10:26N 36°51' W 076°20'3 3.3
2014-Aug-25 09:31N 36°50' W 076°16'1 0.6
2014-Aug-25 08:34N 36°50' W 076°16'4 4.2
2014-Aug-25 07:33N 36°53' W 076°20'6 5.9
2014-Aug-25 06:33N 36°59' W 076°20'3 3.4
2014-Aug-25 05:34N 37°00' W 076°16'5 4.8
2014-Aug-25 04:30N 37°04' W 076°12'5 5.6
2014-Aug-25 03:31N 37°09' W 076°08'113 4.9
2014-Aug-24 04:23N 39°01' W 076°23'6 6.7
2014-Aug-24 03:32N 39°07' W 076°24'6 6.0
2014-Aug-24 02:33N 39°11' W 076°29'6 5.9
2014-Aug-24 01:33N 39°15' W 076°35'2 1.9
2014-Aug-24 00:33N 39°14' W 076°33'7 6.9
2014-Aug-23 23:33N 39°10' W 076°25'7 7.2
2014-Aug-23 22:33N 39°03' W 076°23'130 6.7
2014-Aug-23 03:16N 36°53' W 076°20'4 5.9
2014-Aug-23 02:31N 36°50' W 076°16'1 0.6
2014-Aug-23 00:08N 36°50' W 076°17'0 0.0
2014-Aug-22 23:33N 36°50' W 076°17'0 0.0
2014-Aug-22 22:33N 36°50' W 076°17'1 1.1
2014-Aug-22 21:33N 36°50' W 076°16'5 4.5
2014-Aug-22 20:32N 36°54' W 076°20'12 0.4
2014-Aug-21 16:20N 37°01' W 076°31'8 3.7
2014-Aug-21 14:20N 36°57' W 076°23'9 4.4
2014-Aug-21 12:20N 36°50' W 076°16'1 0.6
2014-Aug-21 11:25N 36°50' W 076°16'1 1.5
2014-Aug-21 10:30N 36°50' W 076°17'0 0.0
2014-Aug-21 09:10N 36°50' W 076°17'10 3.6
2014-Aug-21 06:24N 36°60' W 076°21'0 0.2
2014-Aug-21 04:20N 36°60' W 076°21'4 2.0
2014-Aug-21 02:27N 36°56' W 076°20'6 7.0
2014-Aug-21 01:32N 36°50' W 076°17'0 0.2
2014-Aug-21 00:31N 36°50' W 076°17'1 1.3
2014-Aug-20 23:29N 36°49' W 076°17'1 0.9
2014-Aug-20 22:33N 36°48' W 076°17'2 1.2
2014-Aug-20 20:24N 36°50' W 076°16'0 0.3
2014-Aug-20 19:18N 36°50' W 076°15'0 0.6
2014-Aug-20 18:32N 36°50' W 076°16'0 0.1
2014-Aug-20 17:32N 36°50' W 076°16'0 0.0
2014-Aug-20 15:30N 36°50' W 076°16'0 0.4
2014-Aug-20 14:28N 36°50' W 076°16'1 1.0
2014-Aug-20 13:22N 36°50' W 076°15'1 0.3
2014-Aug-20 08:34N 36°50' W 076°16'6 5.4
2014-Aug-20 07:30N 36°55' W 076°20'5 5.6
2014-Aug-20 06:34N 37°00' W 076°18'5 4.8
2014-Aug-20 05:33N 37°04' W 076°14'6 6.1
2014-Aug-20 04:33N 37°09' W 076°12'3 0.1
2014-Aug-19 06:31N 37°06' W 076°13'7 6.9
2014-Aug-19 05:32N 37°00' W 076°17'13 6.2
2014-Aug-19 03:29N 36°48' W 076°18'3 0.9
2014-Aug-19 00:08N 36°50' W 076°16'2 3.0
2014-Aug-18 23:24N 36°48' W 076°17'1 0.0
2014-Aug-17 16:13N 36°48' W 076°18'3 3.9
2014-Aug-17 15:28N 36°50' W 076°16'1 1.4
2014-Aug-17 14:30N 36°50' W 076°17'1 1.2
2014-Aug-17 13:25N 36°50' W 076°16'4 4.2
2014-Aug-17 12:23N 36°53' W 076°20'4 4.3
2014-Aug-17 11:31N 36°57' W 076°21'  

Dump ship's entire track history